Espace membre
Imprimable
Challenges > Delhalle - Erpent, 13/02/2016, BEL - La Printanière
Liste des rapports > Delhalle - 15.7km - Classement
Recherche: Page: [1] 2 3
1174 Entrées
 
Les réclamations ne sont plus acceptées, les résultats sont considérés comme définitifs.
Catégorie
PosNrNomAgeIOCLigueEquipeRéelTempsTkmMoy.RangNomPtsLocalité
1.989PAQUES BENOIT25BELRFCLSAUCONY54:1354:133:28 17.381sen1163BEAUFAYS
2.3805DURVIAUX RAPHAËL30BELWACOGUEPARD TEAM55:3655:363:33 16.952sen1140TILLIER
3.371PHILIPPE JEROME43BELURBANTRITEAM56:2956:293:36 16.681ve11124HOEILAART
4.2549PAQUET AMAURY25BELDE VALOIS - MJ 57:5357:543:42 16.273sen1101CHARNEUX
5.2634MAHIA SEBASTIEN30BELWACORUN ATTITUDE58:0158:013:42 16.244sen1099NAMUR
6.2728THEUNIS GERT41BELFCHAASICS59:0159:033:46 15.962ve11083
7.3075D'HARVENG YVES26BELSTART-TODAY/URB59:1859:183:47 15.895sen1078SAINT-MARC
8.3575GOUBAU JOHAN29BELTRI4US59:5859:583:50 15.716sen1067
9.3900WIDART OLIVIER36BELMYRUN1:00:091:00:093:50 15.667sen1064ARBRE
10.2700BURTOMBOY GRÉGORY39BEL1:00:151:00:153:51 15.648sen1063DAVERDISSE
11.2603MLECZKO OLIVIER45BELJOGGING PLUS1:00:231:00:233:51 15.603ve11060FLAWINNE
12.3506KEMPINAIRE JULIEN34BELARCH1:00:451:00:453:53 15.519sen1054
13.2620OUMAROU YAHAYA29BELCSFMYSTERE1:01:441:01:443:56 15.2610sen1039ANDERLECHT
14.238VAN DEN ABEELE SEBASTIAN46BELACLO1:01:491:01:503:57 15.244ve11037CARNIERES
15.2637CHERPION STEVE29BELBLACKBIRD1:01:581:01:593:57 15.2011sen1035
16.2695DALAIDEN QUENTIN23BELCCCTRI1:02:041:02:063:58 15.1712sen1033
17.2702DEMARS MAXIME28BELJCCS1:02:161:02:173:59 15.1313sen1030
18.2694DO,DUY THIEN23BELETC1:02:291:02:303:59 15.0714sen1026
19.2636DELMEE GILLES31BELSMAC1:03:331:03:334:03 14.8215sen1010
20.2673DENIS ROMAIN32BELTRIHUS1:03:481:03:494:04 14.7616sen1006MEUX
21.913BOUGHRAD MOHAMED36BELCSFKALENJI TEAM1:03:561:03:574:05 14.7317sen1004BRUXELLES
22.2548DEMIRKAZAN MIKAIL23TURGOKUSSJA1:03:461:04:014:05 14.7218sen1006HERVE
23.3384MEUL WIM33BELVOLH1:04:121:04:134:06 14.6719sen1000BEVEREN
24.3275LEKEU FRÉDÉRIC35BELHUY1:04:351:04:384:07 14.5820sen994WANZE
25.2633MEUNIER GERARD58BEL1:04:401:04:414:08 14.571ve2992
26.338HEUNINCK ALEXANDRE27BEL1:04:421:04:464:08 14.5521sen991BRUXELLES
27.3564MORREN JEREMY26BELRIWARIWA1:04:451:04:504:08 14.5322sen990
28.3887VAN DEN BRANDEN BENOÎT41BEL1:04:491:04:554:09 14.515ve1989NAMUR
29.3026IWENS ALAIN52BELHOOIBERGLOPERS1:04:591:05:004:09 14.492ve2987HAACHT
30.3839THONET JEAN-BAPTISTE26BELARCH1:05:001:05:034:09 14.4823sen986HAMOIS
31.3840REGNIER PIERRE40BEL1:05:141:05:164:10 14.436ve1983LIEGE
32.825PACQUET DOMINIQUE51BELACLO1:05:211:05:244:10 14.403ve2981MERBES SAINTE MARIE
33.3831DELCHAMBRE FRÉDÉRIC43BELTRANSITION SPOR1:05:381:05:414:11 14.357ve1976WANZE
34.3188GOUBAU COLIN31BELBTC1:05:551:05:554:12 14.2924sen972BRUXELLES
35.524CHARLIER ALAIN46BELSMAC1:05:581:06:014:13 14.278ve1971BOUGE
36.2536HARDY ERIC54BEL1:06:081:06:084:13 14.254ve2968SALLES
37.2625PIRON JULIEN30BELTRI4US1:06:081:06:124:13 14.2325sen968MALONNE
38.3954CHATELAIN JULIEN31BELHUYLES FOULEES DU 1:06:121:06:154:14 14.2226sen967FRAITURE
39.3337LELIÈVRE THIERRY44BELJOGGANS1:06:191:06:224:14 14.209ve1965BRUXELLES
40.321ORVAL ALAIN47BEL1:06:351:06:374:15 14.1410ve1961CINEY
41.3872MARCHAL GILLES27BELGAG1:06:321:06:414:15 14.1327sen961GEMBLOUX
42.219KOLP VINCENT29BEL1:06:461:06:474:16 14.1128sen958HORRUES
43.3392DULIEU RAYMOND51BELSAP EVENTS1:06:561:06:584:16 14.075ve2955ERPENT
44.3513VANDEN BOSSCHE PHILIPPE47BEL1:07:061:07:074:17 14.0411ve1953LIMAL
45.3137DUFEY CÉDRIC36BELPFA TEAM1:07:081:07:124:17 14.0229sen952NATOYE
46.2622DESCAMPS FABRICE46BEL1:07:141:07:164:18 14.0112ve1950
47.2527DIEUDONNE GILLES32BELARCH1:07:061:07:184:18 14.0030sen952
48.3519ADAM PIERRE32BELJCCS1:07:201:07:204:18 13.9931sen948
49.3823DARAS NICOLAS39FRAFFAGRAC GIVET1:07:211:07:244:18 13.9832sen948GIVET
50.3064ANDRE OLIVIER38BELTEAM BRP1:06:491:07:274:18 13.9733sen955FLAWINNE
51.777DESTREBECQ FRANCOIS42BELETCHIEVR1:07:291:07:314:18 13.9513ve1946FRASNES
52.2618MARION GAËTAN32BELRCNAMUR1:07:331:07:354:19 13.9434sen944GRAND-LEEZ
53.3763VAN LEENDERT CHRISTOPHER28BELRCNAMUR1:07:351:07:384:19 13.9335sen943SAINT-MARC
54.3776ARNOULD SEBASTIEN38BELRC NAM1:07:351:07:384:19 13.9336sen943FLAWINNE
55.2670MARINX MATHIEU32BEL1:07:271:07:454:19 13.9137sen944
56.3827LEHANCE PASCAL44BELORWAL1:07:451:07:484:20 13.8914ve1940LIEGE
57.990PAQUES THIERRY50BELJOGGPLUS1:07:331:07:524:20 13.886ve2942BEAUFAYS
58.3012DACHELET GREGORY36BEL1:07:511:07:554:20 13.8738sen938NATOYE
59.329DUBUC EMILE45BELSMAC1:07:541:07:554:20 13.8715ve1937CRUPET
60.823BOURNONVILLE RUDDY42BELSMAC1:07:561:07:584:20 13.8616ve1936BOIS-DE-VILLERS
61.2525BUIS QUENTIN28BELRONVAU1:08:081:08:114:21 13.8239sen933WAVRE
62.3283CHARLES PATRICK39BEL1:08:111:08:144:21 13.8140sen932MOUSTIER
63.3514KEMPINAIRE PHILIPPE28BEL1:08:281:08:314:22 13.7541sen928
64.3343HUTS SVEN43BELKAPUCIENENLOPER1:08:311:08:334:22 13.7417ve1927VOSSEM
65.2650LAMOTTE QUENTIN26BELACBBS1:08:371:08:414:23 13.7242sen926
66.3101ROUSSEAU DAVID43BELAXA TEAM1:08:341:08:444:23 13.7118ve1926BRAIVES
67.3844VAN DEN KERCKHOVE OLIVIER37BEL1:08:421:08:464:23 13.7043sen924GEDINNE
68.2553DUMONT JEROME25BEL1:08:511:08:514:24 13.6844sen922JAMBES
69.3757SCHAEFER ERIC35BELTURBO1:08:451:08:534:24 13.6845sen923TILLY
70.3267DEWAIDE ANTONI43DEU1:08:491:08:544:24 13.6719ve1921TINLOT
71.3877DETRAIT HUGUES28BELACCO1:08:551:08:594:24 13.6646sen920PHILIPPEVILLE
72.5FVANDROOGENBROECK VIRGINIE45BELCABWTRAINING 71:09:051:09:064:25 13.641ai1917BRAINE L'ALLEUD
73.3041NEYMAN ERIC48BELTEAM MARCEL1:09:101:09:104:25 13.6220ve1916HERON
74.2677HAQUENNE ROMAIN23BEL1:08:541:09:164:25 13.6047sen920
75.3573GIVRON RÉGIS26BEL1:08:331:09:194:25 13.5948sen924CHARLEROI
76.851BAIJOT PHILIPPE50BELJCCS1:09:181:09:194:25 13.597ve2913GEDINNE
77.3325DIDIER AURELIEN29BELPDO TEAM1:09:201:09:244:26 13.5749sen912ACHÊNE
78.3338HANCE THIBAUT33BEL1:09:231:09:264:26 13.5750sen912BELGRADE
79.712LORENT XAVIER35BELBOUFFIOLS1:09:041:09:264:26 13.5751sen916BOUFFIOULX
80.2610FSOENEN VIRGINIE30BELSMACTRAKKS1:09:311:09:324:26 13.551dam909YVOIR
81.2734BOVERIE JONATHAN28BELSTEPTOTRI1:09:311:09:334:26 13.5552sen909CHASTRE
82.291DE VOS DAVID35BEL1:09:331:09:344:26 13.5453sen908THON-SAMSON
83.850VAN DEN BERGH ALAIN54BEL1:09:411:09:454:27 13.518ve2906COURCELLES
84.3945FRÈRE GILLES44BELWACO1:09:471:09:494:27 13.4921ve1904HANNUT
85.3028PIRSOUL DENIS49BELARCH1:09:541:09:574:28 13.4722ve1903HAVELANGE
86.3328NANIWE GILLES40BDI1:09:581:09:584:28 13.4623ve1902BRAINE L'ALLEUD
87.2730PONCELET FREDERIC43BELJCPMF RAMILLIES1:10:011:10:014:28 13.4524ve1901
88.198FFOURGEAUX SOPHIE37BELWACO1:09:561:10:034:28 13.452dam901MOHA
89.387BOSKIN BERNARD28BEL1:09:511:10:134:29 13.4254sen902STAVELOT
90.175DENIS PATRICK50BELARCH1:10:121:10:134:29 13.429ve2897BERTRIX
91.3271FAUTSCH MICHEL38BELORWAL1:10:141:10:214:29 13.3955sen896LESVE
92.2599EVRARD BERTRAND35BEL1:10:161:10:224:29 13.3956sen896BRAIBANT
93.2745ANNET PHILIPPE38BEL1:10:181:10:224:29 13.3957sen895
94.3932MAKUMBA BENJAMIN39BEL1:10:251:10:324:30 13.3658sen893RHODE ST GENÈSE
95.3398STOCKMANS FRANÇOIS50BELRCB1:10:361:10:384:30 13.3410ve2891BRUXELLES
96.3342CAMMAERTS BART37BELKAPUCIENENLOPER1:10:331:10:394:30 13.3359sen891LEEFDAAL
97.2566TOUSSAINT PIERRE-YVES24BELBH BELGIUM TEAM1:10:421:10:434:31 13.3260sen889YVOIR
98.125FVAN DER ZWALMEN SABINE36BELUSBWMYSTERE1:10:421:10:444:31 13.323dam889LASNE
99.2691MINE SIMON28BEL1:10:501:10:534:31 13.2961sen886
100.2543PIERRE ETIENNE46BELARCH1:10:541:10:554:31 13.2925ve1886
101.3876GILLOT STÉPHAN41BEL1:10:521:10:554:31 13.2826ve1886WARÊT-LA-CHAUSSÉE
102.2676FLEROY VALERIE42BELATCC1:10:581:10:584:32 13.282ai1884LANEFFE
103.3167DELLIEU LOUIS26BELTNT1:10:031:10:594:32 13.2762sen896NAMUR
104.3175PASTEELS JOHAN31BELSMAC1:11:031:11:034:32 13.2663sen882LONGCHAMPS
105.2717NOUAMANI MOHAMMED45BELJOGGANS1:11:031:11:094:32 13.2427ve1882
106.2665PINCHART MICHAEL39BELMEUTIS BIKERS1:11:101:11:154:33 13.2264sen880MEUX
107.3166MIGNON JEAN-POL47BELJ31:10:521:11:164:33 13.2228ve1884FLORIFFOUX
108.2680MASSON CHRISTOPHE31BELSHARKS TRIATHLO1:11:191:11:194:33 13.2165sen878WÉPION
109.2736DELWICHE LUC34BEL1:11:181:11:214:33 13.2066sen877FLAWINNE
110.181LABBÉ JEAN-MARIE56BEL1:11:191:11:224:33 13.2011ve2877EGHEZÉE
111.3864PETIT CÉDRIC40BELGAG1:10:571:11:234:33 13.2029ve1882BOVESSE
112.3897LEMINEUR QUENTIN28BEL1:11:091:11:304:34 13.1867sen878ISNES
113.2750MASSART CORENTIN19BHSRC NAMUR1:11:291:11:364:34 13.161esp874
114.3752DE GREEF PIERRE44BELARCHARCH1:11:361:11:374:34 13.1530ve1872CINEY
115.914FCAPPELLE STEPHANIE28BELTURBOTRAINING 71:11:551:11:554:35 13.104dam868GEMBLOUX
116.439LIENARD PHILIPPE46BELSPIBO1:11:591:12:004:36 13.0831ve1867BLAUGIES
117.3282TONERO ALEXANDRE34BELTCDM1:11:551:12:034:36 13.0868sen867MONS
118.3387DE VLEESCHAUWER DIMITRI34BELRUNNING TEC NAM1:11:261:12:034:36 13.0869sen873FLAWINNE
119.889LECRENIER BENJAMIN32BELFLEU1:12:031:12:044:36 13.0770sen865FRANIERE
120.3076MOLITOR ANDRE55BELARCHMARCHE EN FAMEN1:12:051:12:104:36 13.0612ve2864HARGIMONT
121.3377MONIOTTE GILLES-ANTOINE46BEL1:12:101:12:114:36 13.0532ve1863VEDRIN
122.3767BRUGGEMAN DEREK30BEL1:12:261:12:294:37 13.0071sen859MEUX
123.3274JOKUZYS DEIVIDAS43LTU1:12:021:12:294:37 13.0033ve1864BRUXELLES
124.3998DEPAEPE PATRICK46BELOXY 2000 - RC N1:12:321:12:324:38 12.9934ve1857THIEUSIES
125.3040GHYSSELINCKX CHRISTOPHE37BELJAMES1:12:371:12:434:38 12.9672sen856LOUVAIN-LA-NEUVE
126.839POUCET BENOIT51BELJACO1:12:351:12:454:38 12.9513ve2856SELOIGNES
127.677PAULUS PHILIPPE55BELESM1:12:261:12:474:39 12.9514ve2858MONT-SUR-MARCHIENNE
128.3285BROUIR LUC49BEL1:12:451:12:484:39 12.9435ve1853BOIS DE VILLERS
129.2611AUQUIER GERY61BELSMACTRAKKS1:12:471:12:484:39 12.941ve3853
130.3322LAURENT JOHN40BELARCHARCH1:12:451:12:494:39 12.9436ve1853PURNODE
131.3801LUXEN JEAN MICHEL50BELJ3-JCPMF GEMBLO1:12:521:12:524:39 12.9315ve2851GEMBLOUX
132.983CULLOP PAUL55BELENJAMBEE1:12:481:12:554:39 12.9216ve2851BRUXELLES
133.2746BOVERIE LIONEL21BEL1:12:571:13:004:39 12.9173sen849CHASTRE
134.3289DEGIMBE RAPHAEL39BELRAPTOR TEAM1:12:591:13:034:40 12.9074sen849CHAMPION
135.2727PEIGNOIS BASILE25BELRUNNING TEAM 111:12:411:13:074:40 12.8875sen852NAMUR
136.3989BERBEN REMI28BEL1:13:061:13:134:40 12.8776sen847ANHÉE
137.228MARCHAL YVES46BELRUN WILD1:13:091:13:154:40 12.8637ve1846VEDRIN
138.3566DEMOLDER YOANN26BELRIWARIWA1:13:171:13:194:41 12.8577sen844
139.21TOUSSAINT FRANK50BELSCBUTG1:13:211:13:234:41 12.8417ve2842SOURBRODT
140.236DUYCK XAVIER49BEL1:13:221:13:274:41 12.8338ve1842SPY
141.2731RIGUELLE FRANÇOIS35BEL1:12:571:13:294:41 12.8278sen847SOMBREFFE
142.2639RADART FLORENTIN31BELBLACKBIRD1:13:391:13:404:42 12.7979sen838
143.3087THOMAS BENJAMIN33BELSALZONE1:13:231:13:424:42 12.7880sen841NAMUR
144.3386BALLEUX CHRISTOPHE40BELZATOPEK NAMUR1:13:071:13:434:42 12.7839ve1844BOIS-DE-VILLERS
145.2724CORDIER PASCAL46BELURBAN TRI SPORT1:13:391:13:434:42 12.7840ve1837
146.3134MONIOTTE GABRIEL46FRARC NAMUR1:13:441:13:494:43 12.7641ve1836BONINNE
147.58HENRY ANDRE56BELRCB1:13:551:13:554:43 12.7418ve2833LA HULPE
148.3409POUSSEUR DOMINIQUE46BELARCH1:13:581:14:014:43 12.7342ve1832LEIGNON
149.294HASSOUTE EL MOUSTAFA50BELCSFMYSTERE1:13:551:14:074:44 12.7119ve2832FOREST
150.2688VAST BRUNO32BELLBFTDTRI4US1:14:051:14:094:44 12.7181sen830
151.858POTTIEZ PHILIPPE52BELVERTIGO1:14:031:14:124:44 12.7020ve2831MONS
152.3346SAINTVITEUX MICHAËL43BELGAG1:13:591:14:124:44 12.7043ve1831GEMBLOUX
153.519MATHIEU ALEXIS25BELJCCS1:13:481:14:144:44 12.6982sen833GEDINNE
154.742RATINCKX CHRISTOPHE25BELRIWA1:14:041:14:144:44 12.6983sen829WAVRE
155.2557DORANGES JEAN-CHARLES36FRA1:13:511:14:174:44 12.6884sen831NAMUR
156.2725ELAERTS MATHIAS19BELRFCL ATHLE1:13:591:14:194:45 12.682esp829NEDER-OVER-HEEMBEEK
157.3990EVRARD CHRISTOPHE42BELRCNAMUR1:14:161:14:234:45 12.6744ve1826VEDRIN
158.556RATINCKX JEAN-PHILIPPE28BELRIWA1:14:111:14:244:45 12.6685sen827OTTIGNIES
159.2616BERGIERS CHRISTOPHE48BELCC ST MARTIN1:14:191:14:264:45 12.6645ve1825
160.3569DELPIERRE JEAN-LUC57BEL1:14:251:14:274:45 12.6521ve2823
161.3961BOSSIROY ERIC31BELTABORA1:13:521:14:314:45 12.6486sen830SART-SAINT-LAURENT
162.3845FOULUKOFF ANAIS28BELACL - TRIFAST1:14:311:14:344:45 12.635dam821JAMBES
163.2662MEURISSE PAUL26BELCOACH R1:14:161:14:454:46 12.6087sen824
164.74BROUWIER PIERRE64BELHERVE1:14:461:14:484:46 12.602ve3818GRAND RECHAIN
165.428FDUTRANNOIT VERONIQUE45BELSPIBO1:14:471:14:494:46 12.593ai1817HAVRE
166.2664PIERARD STÉPHANE31BELTAFTAF1:14:491:14:504:46 12.5988sen816MARCHE-EN-FAMENNE
167.420CAUDRON DAVID49BELSPIBO1:14:451:14:504:46 12.5946ve1817FLENU
168.3824BOUCHONVILLE TAE BOK35BEL1:14:231:14:524:47 12.5889sen821NAMUR
169.3777DOS SANTOS NEIVA SERGIO43PRTARCH1:14:531:14:534:47 12.5847ve18155524
170.106LORGE JEAN-MARC50BELRONVAU1:14:551:15:074:48 12.5422ve2814EGHEZEE
171.78DUTRIEUX FERNAND45BEL1:15:121:15:154:48 12.5248ve1811BAUDOUR
172.3094VAN CAMP LAURENT39BELTURBO1:15:091:15:184:48 12.5190sen811HENRIPONT
173.3147BRUNEEL STÉPHANE31BELMYSTERE1:15:131:15:234:49 12.5091sen809BRUXELLES
174.594BOSSANT JEAN-FRANCOIS41BELFER1:15:221:15:234:49 12.5049ve1807VELLEREILLE-LE-SEC
175.2570MOYEN JONATHAN38BEL1:15:221:15:264:49 12.4992sen807BASTOGNE
176.3090PIERMAN BAPTISTE26BELTURBOTURBO1:14:581:15:304:49 12.4893sen812CORROY-LE-GRAND
177.209FDE GREVE GEERTRUI41BELETCHIEVR1:15:251:15:334:49 12.474ai1806EREMBODEGEM
177.3042ROSOUX PIERRE-YVES49BELXTREME TEAM BEL1:14:561:15:334:49 12.4750ve1812GANSHOREN
179.3068JACOBS OLIVIER43BELAG RUNNING TEAM1:15:061:15:334:49 12.4751ve1809GEMBLOUX
180.539MARTIN CHRISTOPHE39BELRUNNING GAUME1:15:321:15:354:49 12.4694sen804VIRTON
181.3789GUEUNING BENOÎT36BELTAF1:15:171:15:364:49 12.4695sen806MARLOIE
182.3942COLLARD ETIENNE48BELARCH1:15:341:15:374:49 12.4652ve1803LESVE
183.241FVANDERLINDEN JULIE32BELTRAINING 71:15:351:15:374:49 12.466dam802IXELLES
184.3981HECQ OLIVIER DIT CRUCHOT50BELJ3-CELESTES-OML1:15:221:15:394:50 12.4523ve2804ANDENNE
185.3873DE MEERSMAN THIBAUT37BELMYRUN1:15:111:15:404:50 12.4596sen807MARCHOVELETTE
186.798FDEBONI MALORIE32BELCSFMYSTERE1:15:441:15:444:50 12.447dam799UCCLE
187.2630DE BILDERLING GEORGES49BELSMAC1:15:481:15:534:50 12.4253ve1798LESVE
188.2693GROYNNE EDOUARD29BEL1:15:551:15:554:51 12.4197sen797JAMBES
189.3796FDESILLE NICOLE49BEL1:15:461:15:554:51 12.415ai1798LA HULPE
190.778MINETTE SEBASTIEN36BELATCC1:16:011:16:044:51 12.3898sen795CHATELINEAU
191.956BARTOSZUK ROMAN42BEL1:15:571:16:054:51 12.3854ve1795ZAVENTEM
192.907FTHIRY MARIE34BELRCNAMUR1:16:061:16:104:52 12.378dam793NANINNE
193.2696FRANCOTTE JULIEN41BEL1:15:431:16:164:52 12.3555ve1798
194.553DEVIS LUIGI18BELJAMES1:15:581:16:184:52 12.353esp794RIXENSART
195.463DEMIN MICHEL48BELTEAM MARCEL1:16:091:16:184:52 12.3556ve1792SOVET
196.2617LAMOUREUX KEVIN25BELTEAM MYRUN1:16:101:16:234:52 12.3399sen791
197.3099DONNEAU MAXIME29BELTAF1:16:171:16:234:52 12.33100sen789SOMME-LEUZE
198.3778CERQUEIRA BARTOLOMEU40PRT1:16:131:16:244:52 12.3357ve1790PROFONDEVILLE
199.2614GODRY MARVIN23BELMYRUN1:16:141:16:274:53 12.32101sen790
200.2740MATTHEE ALEX44BEL1:16:191:16:304:53 12.3158ve1788
201.3783HOWET JEAN-PIERRE54BELORWAL1:16:241:16:314:53 12.3124ve2787JAMBES
202.3144GIOZZET FRÉDÉRIC33BELBIBINNERUNNERS1:15:581:16:354:53 12.30102sen792JAMBES
203.2655BASTIEN BENOIT47BEL1:16:351:16:394:53 12.2959ve1784
204.3047VERHULST EMMANUEL40BELTAF1:16:451:16:494:54 12.2660ve1782ROCHEFORT
205.265BOONEN CHRIS45BELAVN1:16:451:16:514:54 12.2661ve1782MEER
206.3555TORRES SYLVANO37ITABOUFFIOLS1:15:311:17:014:55 12.23103sen796
207.659PISSENS JEREMY31BEL1:16:321:17:064:55 12.22104sen784LANDENNE
208.3814LELEU LAURENT46BELTRI4US1:16:351:17:094:55 12.2162ve1783ANHÉE
209.3985FILSFILS MAXIME35BEL1:16:481:17:114:55 12.21105sen780NAMUR
210.3122BONNE MATHIEU29BEL1:16:481:17:124:56 12.20106sen779ERPENT
211.3539NAERT FRANK51BELHCO1:17:241:17:274:56 12.1625ve2772RUDDERVOORDE
212.3020CORNET FABRICE47BELFAST1:17:191:17:274:56 12.1663ve1773TINLOT
213.3025DE BIE WALTER59BELHOOIBERGLOPERS1:17:241:17:294:57 12.1626ve2772HAACHT
214.3060PIRE-STEVENNE FRÉDÉRIC36BEL1:17:131:17:294:57 12.16107sen774GODINNE
215.876GODFROID YVES49BELUSBWMYSTERE1:17:341:17:414:57 12.1364ve1769WATERLOO
216.3565DUMONT ROBIN26BEL1:17:411:17:424:57 12.13108sen767LIMAL
217.566DE MARCHI NICO56BEL1:17:421:17:444:58 12.1227ve2767LIEGE
218.425DE GRAVE OLIVIER51BELCSFMYSTERE1:17:311:17:454:58 12.1228ve2768UCCLE
219.3799LEMAIRE ÉDOUARD39BELPDO TEAM1:17:441:17:504:58 12.10109sen766NOVILLE-LES-BOIS
220.2747FANUEL HERVÉ39BEL1:17:141:17:514:58 12.10110sen772MOHA
221.3522BASTOS ALBERTO56PRT1:17:501:17:534:58 12.1029ve2764CHAUMONT GISTOUX
222.3388LEMINEUR ADRIEN30BEL1:17:501:17:564:58 12.09111sen764YVOIR
223.3886MELOTTE HENRI52BELRUNPRO1:17:351:17:564:58 12.0930ve2766PROFONDEVILLE
224.2660WINANDY GUY60BELRCA SPA1:17:341:17:564:58 12.093ve3766VERVIERS
225.789FCORDIER CHRISTINE50BEL1:17:431:17:584:58 12.081ai2764JUPRELLE
226.3314THORNTON GEOFFREY37BEL1:17:531:18:004:59 12.08112sen762WAUTHIER-BRAINE
227.3063FLEROY FABIENNE42BELWAC1:18:011:18:014:59 12.086ai1760BERLOZ
228.3257ROUSSELLE JOEL64BEL1:18:021:18:044:59 12.074ve3760
229.243FONTAINE PATRICE42BELFORESTIERE1:17:561:18:074:59 12.0665ve1760HERCHIES
230.3835ZIMMER DYLAN37BELSMAC1:18:091:18:094:59 12.05113sen758FLAWINNE
231.714MAILIER CHRISTIAN60BELCRACESM1:18:051:18:104:59 12.055ve3758ROUX
232.759DUBOIS THIERRY44BELJC HERINNES1:17:451:18:134:59 12.0466ve1762KAIN
233.3098MARTIN PEREZ MIGUEL43BEL1:18:081:18:155:00 12.0467ve1757SCLAYN - ANDENNE
234.3517DIEDEREN STEPHEN38BELCAP NRB1:17:581:18:155:00 12.04114sen759
235.3862BERTRAND MICHEL63BELSERATH1:18:181:18:225:00 12.026ve3755OUFFET
236.690LUPCIN PATRICK59BELRCNAMUR1:18:241:18:245:00 12.0231ve2753PERWEZ
237.3505FIASSE FRANCOIS39BELPJBR1:17:151:18:255:00 12.01115sen767
238.2588PEPIN CEDRIC38BELCHEZ THIB1:17:591:18:255:00 12.01116sen757FLAWINNE
239.3262GAUSSET OLIVIER49BELAXA TEAM1:18:241:18:275:00 12.0168ve1752BRUXELLES
240.68MASURE ALEXANDRE46BELRCNAMUR1:18:241:18:345:01 11.9969ve1752LEUZE
241.431MARTIN ERIC53BEL1:18:291:18:385:01 11.9832ve2750WANDRE LIEGE
242.2590EL IMRANI ISSAM36BEL1:18:131:18:395:01 11.98117sen754
243.2738GREMES THOMAS33BEL1:18:181:18:405:01 11.98118sen752VEZIN
244.223DECHAMPS RAOUL41BELSPTWAVRE1:18:401:18:445:01 11.9770ve1748LIMAL
245.3129LIBERT JULIEN28BELSENTIERS DU PHO1:18:331:18:455:01 11.96119sen749BUZET
246.3773ACUSILAS JEAN-YVES46BELRC NAMUR1:18:441:18:475:02 11.9671ve1746JAMBES
247.2580DESILLE JEREMIE38BEL1:18:421:18:505:02 11.95120sen746NAMUR
248.2628BOUCHAT LIONEL30BELZATAC NAMUR1:18:441:18:575:02 11.93121sen746
249.3908SYKOVARIS STAMATIOS50BELGANT1:18:491:18:585:02 11.9333ve2745BRUXELLES
250.2558FRANCOTTE FREDERIC50BEL1:18:411:19:035:03 11.9234ve2746
251.3138VIGNERON MANUEL31BEL1:18:441:19:055:03 11.91122sen745VEZIN
252.3070STENHOUSE ALEXANDER53GBRRUNPRO1:18:441:19:065:03 11.9135ve2744PROFONDEVILLE
253.3550BERTHE JEAN-LOUIS27BEL1:18:551:19:065:03 11.91123sen742RHISNES
254.3533BRIDOUX ROMAIN28BELFLEU1:18:171:19:085:03 11.91124sen749
255.30HANNOTTE CHRISTOPHE43BELRUN FERNELMONT1:18:451:19:085:03 11.9072ve1743NOVILLE-LES-BOIS
256.2582VANACKERE GILLES23BELCSDYANTILOB1:18:391:19:125:03 11.90125sen744
257.955TOUSSAINT XAVIER36BEL1:18:431:19:185:04 11.88126sen743ANDERLUES
258.859FKHARROUBI AWATEF44BELJCCS1:19:051:19:195:04 11.887ai1739GEDINNE
259.3782DE BACKER ERWIN59BEL1:19:011:19:225:04 11.8736ve2739ANTWERPEN
260.531ANTENUCCI MAURO59BELESM1:19:201:19:255:04 11.8637ve2735GOSSELIES
261.3866JOTTARD CHRISTOPHE41BELP81:19:081:19:265:04 11.8673ve1737OCQUIER
262.3121LIBOIS MARC42BELRAPTOR TEAM1:19:111:19:285:04 11.8574ve1736WEPION
263.3874PAYE DOMINIQUE49BEL1:18:541:19:325:04 11.8475ve1739NAMUR
264.2672VANSNICK FABIAN35BEL1:19:051:19:365:05 11.84127sen737
265.370DE GEEST ALEXANDRE45BELMYSTERE1:19:231:19:385:05 11.8376ve1733BRUXELLES
266.3107CLINET PHILIPPE47BEL1:19:361:19:555:06 11.7977ve1730WEPION
267.3523CHAMPAGNE REGIS42BEL1:19:541:20:005:06 11.7878ve1726
268.3352DEGEIMBRE SANG-HO45BELZATOPEK NAMUR1:19:461:20:025:06 11.7779ve1728TEMPLOUX
269.2559BISCOS DAVID43BELJAMES1:20:011:20:025:06 11.7780ve1724
270.2733JORIS DIMITRI31BEL1:19:331:20:105:07 11.75128sen730
271.3923DUBUC LAURENT-EMMANUEL29BEL1:20:091:20:145:07 11.74129sen722GEMBLOUX
272.554BINKERT MARC55CHELDLV1:20:071:20:155:07 11.7438ve2723GANSHOREN
273.3016HOUSIAUX DIMITRI28BELPINK FLOYD1:20:141:20:185:07 11.73130sen721GESVES
274.3572JOUAN BERNARD51BEL1:19:141:20:205:07 11.7339ve2732THYNES
275.3836HORNUNG MATTHIEU42DEURED SOX BRUSSEL1:20:051:20:325:08 11.7081ve1722BRUXELLES
276.2627LEJEUNE SVEN32BELNAMURAID1:20:271:20:375:09 11.68131sen717NAMUR
277.3890JUSTE CHRISTIAAN60BELLE JOUR1:20:021:20:435:09 11.677ve3722BOUTERSEM
278.3609FADIAN PEROONSBEL1:18:091:20:445:09 11.671xxx744
279.308DEVALERIOLA PATRICK52BELPROVINCE NAMUR1:20:341:20:455:09 11.6740ve2715SUARLEE
280.2642DENEUMOSTIER JEROME31BELTEAM DM BELGIUM1:20:421:20:465:09 11.66132sen713
281.3956SPITS VINCENT50BELLBFTDTNT1:20:281:20:475:09 11.6641ve2716FRANC-WARET
282.3541HERMANT JEROME24BEL1:20:351:20:485:09 11.66133sen714
283.3503VANRIE PIERRE49BELGTC1:20:371:20:535:10 11.6582ve1714
284.427VAN DER LINDEN PAUL67BELRCNAMUR1:20:441:20:575:10 11.648ve3712
285.2544MASSART JEAN-FREDERIC53BEL1:20:271:20:585:10 11.6442ve2715
286.2649FAVRIL CLAIRE27BELTRIGT1:20:381:20:585:10 11.649dam713
287.2652FBERGHEZAN MARIE-CHRISTINE52BEL1:20:421:20:585:10 11.642ai2711
288.3193DE FAUCONVAL AUGUSTIN23BEL1:20:111:21:015:10 11.63134sen717KRAAINEM
289.3758GRODRIAN RENAUD43BEL1:21:061:21:085:11 11.6183ve1706JAMBES
290.3023JACQUES FRÉDÉRIC45BEL1:21:171:21:175:11 11.5984ve1704BRAIBANT
291.3350JASSELETTE ARNAUD35BELSWIFT1:20:341:21:195:11 11.59135sen712RIXENSART
292.2615GORJON RUDI48BELRUN FLY1:21:041:21:255:12 11.5785ve1706
293.148HALLEUX JEAN-MARIE46BELHERV1:21:201:21:275:12 11.5786ve1702HERVE
294.3577FMAHIN JENNIFER32BELBUSSHIDO1:21:241:21:285:12 11.5610dam701FLORIFFOUX
295.3518LEVACQ GUY70BELLDLV1:21:201:21:295:12 11.561ve4702
296.3135FBOUCHER JESSICA28BELTRIFAST1:21:181:21:305:12 11.5611dam702TILLY
297.2635FHOOFD CATHERINE33BEL1:21:261:21:335:12 11.5512dam700
298.3800DELENS FRÉDÉRIC42BEL1:20:241:21:355:12 11.5587ve1712JAMBES
299.645FWIGNY SABINE42BELRCNAMUR1:21:131:21:365:12 11.558ai1702VEDRIN
300.2626EUGÈNE PIERRE33BELNAMURAID1:21:301:21:405:13 11.54136sen699JAMBES
301.3821BAURAING DAVID29BEL1:21:301:21:425:13 11.53137sen698GEMBLOUX
302.284MARTHOZ PASCAL47BEL1:20:571:21:425:13 11.5388ve1704BRUXELLES
303.2506VANDE VELDE ERIK48BEL1:20:501:21:465:13 11.5289ve1705
304.3810CUVELIER SERGE56BELR C NAMUR1:21:381:21:475:13 11.5243ve2696WÉPION
305.3265ZICOT CHRISTOPHE42BEL1:21:331:21:495:13 11.5190ve1697AUVELAIS
306.685LETELLIER JEAN LUC51BELMYSTERE1:21:461:21:545:13 11.5044ve2694WAVRE
307.841SALVATO DOMENICO53ITACSFMYSTERE1:21:261:21:565:14 11.5045ve2697BRUXELLES
308.332HANNARD KEVIN33BEL1:21:491:21:585:14 11.49138sen693AUVELAIS
309.3779FTHIRAN FLORENCE23BEL1:21:491:22:025:14 11.4813dam692PROFONDEVILLE
310.3069CEBO FRÉDÉRIC46BELVALEO+/BOUFFIOL1:20:361:22:055:14 11.4891ve1706MONTIGNIES-SUR-SAMBRE
311.3851SERGYSELS PASCAL48BELJOGGANSJOGGANS1:22:061:22:125:15 11.4692ve1689BRUXELLES
312.2643DENEUMOSTIER ROMUALD29BEL1:22:081:22:145:15 11.46139sen688HUY
313.3585LEJEUNE GREGOIRE27BEL1:22:111:22:155:15 11.46140sen687
314.2592GOESSENS JULIEN43BELOCAN1:22:031:22:155:15 11.4593ve1688
315.2675ROUER FABRICE40BEL1:21:351:22:205:15 11.4494ve1693
316.497WYNS JOS64BELHULSHEISTSE BERGLOP1:22:121:22:205:15 11.449ve3686HALLAAR
317.26DRAMAIX SYLVAIN37BELSPIBO1:22:121:22:235:15 11.44141sen686HERCHIES
318.2579BUFFET JUNIOR39BEL1:21:481:22:235:15 11.44142sen690SORINNES
319.837CEUPPENS PAUL55BELHAMURABI1:21:481:22:235:15 11.4346ve2690LINT
320.396SOMERS LUDO53BELHAMURABI1:21:541:22:295:16 11.4247ve2689LINT
321.3529BADOUX FLORIAN28BELTRI4US1:22:301:22:335:16 11.41143sen681ANDENNE
322.567DECLERCQ JOE58BELCEPAL1:22:301:22:345:16 11.4148ve2681BRUXELLES
323.246VANTSIOTIS ANASTHASE63FRA1:22:291:22:345:16 11.4110ve3681BARR
324.3032FOGUENNE OLIVIER45BELEXPERT-COMPTABL1:22:271:22:365:16 11.4195ve1681STAVELOT
325.3516BRUYERE PATRICK39BELBOUFFIOLS1:21:071:22:365:16 11.40144sen696
326.3770SCHELFHOUT WIM38BEL1:21:381:22:365:16 11.40145sen690MECHELEN
327.3774FDIEUDONNE ANNE45BELRC NAMUR1:22:321:22:375:16 11.409ai1679JAMBES
328.3062JACQUEMART SERGE51BEL1:22:151:22:385:16 11.4049ve2682SART SAINT LAURENT
329.3820HONORÉ BRUNO52BEL1:22:241:22:465:17 11.3850ve2680NANINNE
330.465BOSKIN JEAN-CLAUDE61BELLES IDYLLES1:22:311:22:545:17 11.3611ve3678STAVELOT
331.118PLONGEON JEAN-FRANÇOIS38FRA1:22:311:22:565:17 11.36146sen678HEVILLERS
332.2720CANTRAINE NICOLAS41BELOCANOCAN1:22:351:22:595:18 11.3596ve1677
333.395FOHAL JEAN-LUC51BELETCHIEVR1:22:081:23:045:18 11.3451ve2682MESLIN-L'EVEQUE
334.3254ORTEGA-TORRES ENRIQUE58BELRRT CH ATCC1:23:071:23:155:19 11.3252ve2671MELLET
335.22DE MASI GIANNI63ITAFLEU1:23:001:23:155:19 11.3212ve3672WANFERCEE BAULET
336.2537POMILIO NICOLA46BELSPIBO1:23:101:23:155:19 11.3297ve1669QUAREGNON
337.3857CORDIER NICOLAS36BELRUNNIN'GREZ1:22:451:23:185:19 11.31147sen674GREZ-DOICEAU
338.2523LIBERT THIERRY41BELET ENGHIEN1:23:031:23:195:19 11.3198ve1670
339.3109MARTIN PHILIPPE56BELRUNPRO1:23:001:23:215:19 11.3053ve2670WÉPION
340.3963SACRE RÉMI30BELORWAL1:23:061:23:235:19 11.30148sen669NANINNE
341.3768EVRARD JULIEN36BEL1:22:261:23:255:19 11.29149sen6765140
342.3019VAESSEN ALAIN44BELFAST1:23:211:23:265:19 11.2999ve1666TINLOT
343.693CHAUVIER J.PIERRE56BEL1:23:111:23:285:19 11.2954ve2667GENVAL
344.3826QUITTELIER JASON26BEL1:23:221:23:295:19 11.29150sen665MARCHIN
345.842FVAN DEN BERGH MARGAUX21BEL1:23:231:23:295:20 11.2814dam664COURCELLES
346.3535MAGOTTEAUX NICOLAS30BELGSK BB FUN1:22:531:23:315:20 11.28151sen670SELOIGNES
347.3253DENDAL DIDIER53BEL1:23:241:23:325:20 11.2855ve2664LIÈGE
348.802VANWYNSBERGHE BERNARD56BELJAMES1:23:271:23:325:20 11.2856ve2663WALHAIN
349.573SIBOURG MARC48BEL1:23:211:23:375:20 11.27100ve1664TERWAGNE
350.3083FLEMIÈRE MAGALI42BEL1:23:291:23:435:20 11.2510ai1662JAMBES
351.438LEWILLION PHILIPPE50BELFER1:23:411:23:445:20 11.2557ve2659JURBISE
352.3182POLLART JEAN-FRANÇOIS49BELWOLF TEAM1:23:361:23:465:21 11.25101ve1660LONZÉE
353.128BAURIN HERVE51BEL1:23:281:23:495:21 11.2458ve2661AGIMONT
354.3108VAN DE VYVERE POL49BEL1:23:341:23:505:21 11.24102ve1660NOVILLE-LES-BOIS
355.848DEVIERE MICHEL53BELFORESTIERE1:23:201:23:585:21 11.2259ve2662MONS
356.3918TESTELMANS LUC54BEL1:23:541:23:595:21 11.2260ve2656HERSELT
357.337DAMSTEN THIERRY52FIN1:23:421:24:015:22 11.2161ve2658ROSIERES
358.3066MASSAUX DAVID41BEL1:23:211:24:015:22 11.21103ve1661NAMUR
359.2668MARINX ANTOINE29BEL1:23:441:24:025:22 11.21152sen656
360.3580BONTE MICHAEL37BEL1:24:071:24:075:22 11.20153sen652
361.2565FDECOUVREUR OPHÉLIE23BELCAF1:24:041:24:085:22 11.2015dam652OBERHOFFEN-SUR-MODER
362.3579MERCENIER BENOÎT40BELANTILOB1:24:081:24:085:22 11.20104ve1651
363.466FDEMOULIN BRIGITTE56BELRCNAMUR1:24:001:24:125:22 11.193ai2653LUSTIN
364.404TILBURGS FRANK49BELAVN1:23:551:24:135:22 11.19105ve1653MEER
365.658DECAMPS ERIC49BELESM1:24:221:24:265:23 11.16106ve1648GOZEE
366.3128POT GERARD58FRAMYSTERE1:24:221:24:265:23 11.1662ve2647WAVRE
367.748SALAZAR NOËL43BEL1:24:031:24:285:23 11.15107ve1651SINT-JANS-MOLENBEEK
368.3582MOREAU CORENTIN24BEL1:24:291:24:295:23 11.15154sen645
369.3992CLAES AURELIEN29BEL1:24:131:24:325:24 11.14155sen649NAMUR
370.695DE DAPPER DAVID43BELCSFMYSTERE1:24:331:24:355:24 11.14108ve1645BRUXELLES
371.3264GERMIAT BORIS20BEL1:24:181:24:365:24 11.14156sen647SAINT-SERVAIS
372.293FCARTIAUX MURIEL47BELRCB1:24:201:24:385:24 11.1311ai1646EVERE
373.3251DE MAET ALEXANDER40BEL1:24:311:24:415:24 11.13109ve1644VILVOORDE
374.378WEYNAND HELMUT73BELSCBUTG1:24:391:24:465:24 11.112ve4642KRINKELT
375.3832LECOMTE MICHEL56BELHEIN1:24:041:24:485:25 11.1163ve2648ASSESSE
376.3863HAYOT CLÉMENT18BEL1:24:011:24:485:25 11.114esp649SORINNES
377.540LECLERCQ BRUNO50BELCSFMYSTERE1:24:321:24:505:25 11.1164ve2643FOREST
378.2631HERBINT CHRISTOPHE40BELTRI4US1:24:321:24:555:25 11.09110ve1642
379.3124GHIGNY THOMAS34BELGAG1:24:291:24:585:25 11.09157sen642GEMBLOUX
380.2577PERET FRANCOIS37BELJOASSIN TRAIL T1:24:261:25:015:25 11.08158sen643
381.3849HAYOT DIDIER49BEL1:24:151:25:055:26 11.07111ve1644SORINNES
382.816DOSSERAY ROGER70BELHF1:25:051:25:105:26 11.063ve4635PEPINSTER
383.930WALLEE ALAIN60BELTENDONS1:24:361:25:125:26 11.0613ve3640LA HULPE
384.3252MARTINAGE LIONEL50BELLES POTOS ROSES1:24:561:25:135:26 11.0665ve2636TONGRINNE
385.3786FVERHAEGHE SOPHIE37BEL1:24:311:25:155:26 11.0516dam641BAISY-THY
386.3154DUBASIN KEVIN29BEL1:25:131:25:155:26 11.05159sen632NOISEUX
387.896FGODFROID LUCIE20BELUSBWMYSTERE1:24:581:25:165:26 11.0517dam635WATERLOO
388.3927MALOTAUX FRANÇOIS39BEL1:24:321:25:175:26 11.05160sen639SAINT-DENIS
389.991DE HERTOG PHILIPPE46BELGRIMAFRIT 71:25:121:25:345:27 11.01112ve1632WETTEREN
390.3570TABURIAUX JULIEN30BELANTILOB1:25:311:25:385:28 11.00161sen628
391.2551RAYMOND FREDERIK40BEL1:25:261:25:425:28 10.99113ve1629MAIZERET
392.3534CHARASSON OLIVIER41BEL1:24:581:25:475:28 10.98114ve1634
393.3286BROUIR MAXIME22BEL1:25:241:25:505:28 10.98162sen629BOIS-DE-VILLERS
394.605SEYNAEVE LAURENT45BEL1:25:451:25:505:28 10.98115ve1624TEMPLOUX
395.3592GUTIERREZ DAVID34BEL1:25:081:25:515:29 10.97163sen631
396.3833BEHETS MARC61BEL1:25:371:25:555:29 10.9714ve3625LUXEMBOURG
397.2679FHEINDRICHS ANGELIQUE41BELJOGGING ATTITUD1:25:471:26:005:29 10.9512ai1623VIERSET BARSE
398.2501HOMMEL CHRISTOPHE29LUX1:25:411:26:045:29 10.95164sen624ERPENT
399.3935ROSOUX LIONEL42BEL1:25:241:26:085:30 10.94116ve1627NAMUR
400.2685BOUILLON JEAN-MARC52BEL1:26:041:26:145:30 10.9366ve2619
401.2504WILLEMART HUGUES39BEL1:25:351:26:155:30 10.92165sen624
402.2507SCHINCKUS GÉRALD46BEL1:25:551:26:165:30 10.92117ve1620BOUGE
403.864GILLET JEAN-PAUL70BEL1:26:171:26:175:30 10.924ve4616VIRTON
404.3838DEHON LAURENT41BEL1:25:191:26:185:30 10.92118ve1626NAMUR
405.447BRUGGEMAN DAVID41BELSPTWAVRE1:25:171:26:215:30 10.91119ve1626LIMELETTE
406.3936DUJEUX TRISTAN37BELHAMOIS LES RAND1:26:131:26:265:31 10.90166sen616CINEY
407.2744ZUYDERHOFF PIERRE31BEL1:26:191:26:325:31 10.89167sen615ETTERBEEK
408.3525COLLETE HUGUES35BELBOUFFIO1:25:081:26:385:32 10.87168sen627
409.3586DELIENS MATHIEU31BEL1:26:201:26:385:32 10.87169sen614
410.655DUBOIS PIERRE50BELHEIN1:25:561:26:395:32 10.8767ve2618FLOREE
411.3527LINDEKENS BERTRAND50BELFLEURUS ATHLÉTI1:26:171:26:415:32 10.8768ve2614
412.3766FDEBATTY LAURANNE25BEL1:25:441:26:435:32 10.8618dam619NAMUR
413.2578MARTIAEL FRANCOIS34BEL1:26:081:26:435:32 10.86170sen615
414.3905TITECA THIBAUT46BEL1:26:301:26:435:32 10.86120ve1611MEUX
415.3571LEJEUNE RÉMI32BELNAMURAID1:26:381:26:485:32 10.85171sen609TAMINES
416.2692FDEWINTER EMMANUELLE25BELBOUFFIOLS1:25:551:26:495:32 10.8519dam616
417.535ROMBAUX MARC56BELCSDY1:26:151:26:505:32 10.8569ve2612LOUVAIN LA NEUVE
418.2545VERHAEGHE LUC55BEL1:26:181:26:515:32 10.8570ve2612
419.974LESOIL PHILIPPE49BELENJAMBEE1:26:271:26:545:33 10.84121ve1610BRUXELLES
420.2732HOGGE SIMON36BEL1:26:381:27:015:33 10.83172sen608
421.676LESTRATE GABRIEL64BELHEIN1:26:201:27:045:33 10.8215ve3610FLOREE
422.598VAN LANCKER LAURENT45BEL1:27:001:27:065:33 10.82122ve1603COURT-SAINT-ETIENNE
423.3391HEUGHEBAERT PIERRE36BEL1:26:341:27:095:34 10.81173sen607NAMUR
424.3829STREBER GEORGES62BELSMAC1:27:101:27:105:34 10.8116ve3601ERPENT
425.3189CABOSART VINCENT32BEL1:27:051:27:115:34 10.81174sen601JAMBES
426.2666DIGRADO ANTHONY28BEL1:27:061:27:155:34 10.80175sen601NAMUR
427.2598DOUILLEZ XAVIER36BEL1:26:341:27:205:34 10.79176sen606
428.3917BOLLE PAUL-ANDRÉ55BELZATOPEK URBAN T1:26:311:27:235:34 10.7871ve2606VEDRIN
429.194AUBERT SERGE61BEL1:27:191:27:255:35 10.7817ve3598GERPINNES
430.3319HUBEAUX VINCENT47BELGAG1:26:181:27:265:35 10.78123ve1608FLAWINNE
431.82BACHMANN MARC55BEL1:26:451:27:265:35 10.7772ve2603GREZ DOICEAU
432.3909FLECLERC SANDRINE28FRA1:26:581:27:285:35 10.7720dam601ETTERBEEK
433.3611VANDERLINDEN MARC58BELTRAINING 71:25:481:27:315:35 10.7673ve2613WATERMAEL
434.2719BERTRAND THIBAUT34BELMINOUS1:27:141:27:335:35 10.76177sen597CHAMPION
435.3344VILLERS FABIAN30BEL1:27:271:27:365:35 10.75178sen594GRAND-LEEZ
436.2502LEBLANC GUILLAUME25BEL1:26:411:27:395:35 10.75179sen602ERPENT
437.3976TIMMERMANS MARTIN24BEL1:26:521:27:405:35 10.75180sen600HOEILAART
438.331FGODFROID YAEL16BELMYSTERE1:27:241:27:425:36 10.741esf594WATERLOO
439.2556DEFLEUR KÉVIN31BEL1:26:251:27:455:36 10.74181sen605FOSSES LA VILLE
440.593DEMOULIN JOSE70BELBAIL RUN1:27:141:27:475:36 10.735ve4595EVREHAILLES
441.3093VAN CAMP JEAN-FRANÇOIS43BEL1:27:371:27:475:36 10.73124ve1591SOMBREFFE
442.513DUFAUX RAPHAEL49BEL1:26:441:27:485:36 10.73125ve1600FLOREFFE
443.2585LIZEN ERIC61BELVIVAQUA1:26:351:27:495:36 10.7318ve3601
444.743RATINCKX MICHEL59BELRIWAHERMATH1:27:341:27:555:36 10.7274ve2590BIERGES
445.3358SGARD VINCENT42FRAZATOPEK NAMUR1:27:051:27:555:36 10.72126ve1595JAMBES
446.2735HUBERT CHRISTOPHE52BEL1:27:421:27:565:37 10.7175ve2589
447.3022LAMY SEBASTIEN41BEL1:27:281:27:575:37 10.71127ve1591BRAIBANT
448.2710MEURISSE GUILLAUME27BEL1:27:181:28:015:37 10.70182sen592
449.3943WARNIER ALEXANDRE35BELJAMES1:27:431:28:025:37 10.70183sen588WIERDE
450.2667ETIEN CHRISTOPHE40BELRUNNIN'JC RONVAU1:27:551:28:075:37 10.69128ve1585GREZ-DOICEAU
451.2608MATAGNE PIERRE-YVES33BEL1:27:271:28:085:37 10.69184sen590NAMUR
452.3053GALLEZ BENOIT37BELJCPMF RAMILLIES1:27:171:28:145:38 10.68185sen591HUPPAYE
453.3125DELFOSSE THOMAS36BELPAZAPA1:27:181:28:155:38 10.67186sen591LES BOSCAILLES
454.3179DETRY MILTON26BEL1:27:341:28:165:38 10.67187sen588LOUVAIN LA NEUVE
455.517KOLP CHRISTIAN62BELET ENGHIEN1:28:051:28:175:38 10.6719ve3582HORRUES
456.2586FAYS NICOLAS36BEL1:27:461:28:215:38 10.66188sen585BONNEVILLE
457.3797JACQUEMIN PATRICK51BEL1:28:111:28:255:38 10.6676ve2580HANNUT
458.3399HAUTEKEER JEAN-PAUL51BEL1:28:031:28:255:38 10.6577ve2581VERLAINE
459.2505ABEELS THIERRY48BELJAMES LOUVAIN L1:27:471:28:265:38 10.65129ve1584
460.2701TAMINIAUX JEAN-FRANÇOIS42BELALSTOM TRANSPOR1:27:421:28:295:39 10.65130ve1585
461.94FPELTGEN MARIE-PAULE55BEL1:28:171:28:305:39 10.644ai2578EGHEZÉE
462.3100SALAZAR GAJARDO SAMUEL31BEL1:28:131:28:335:39 10.64189sen579JAMBES
463.2587ROUFOSSE SEBASTIEN33BEL1:27:211:28:355:39 10.64190sen588
464.580HOMBROUX MARCEL63BELHANNUT JOG1:27:501:28:365:39 10.6320ve3582MONTENAKEN
465.599LOICQ ADRIEN32BELJCPMF AISEAU1:28:131:28:365:39 10.63191sen578ROSELIES
466.544ROCHUS DAVID34BEL1:27:581:28:365:39 10.63192sen580PIÉTRAIN
467.2576WIBRIN BERTRAND31BEL1:27:531:28:375:39 10.63193sen581ERPENT
468.2714CALDERS RUDY51BEL1:28:301:28:375:39 10.6378ve2574AARSCHOT
469.3583DENIS OLIVIER55BELUSBW1:28:071:28:385:39 10.6379ve2578
470.3390CZENKI JUSTIN27BEL1:28:241:28:395:39 10.63194sen574AUVELAIS
471.3574GERARD XAVIER32BELPROVINCE DE NAM1:27:571:28:405:39 10.63195sen579
472.3520FPLAQUET EMMANUELLE34BEL1:28:051:28:405:39 10.6321dam577
473.3123FDELAHAUT DELPHINE36BEL1:28:121:28:415:39 10.6222dam576WÉPION
474.3756DELVAUX THIERRY54BELNÉANTNÉANT1:28:371:28:415:39 10.6280ve2571HANNUT
475.3925MATHIEU JEAN-POL54BELJCCS1:28:171:28:435:40 10.6281ve2574RIENNE
476.3860FCRUCIFIX SOPHIE35BELZATOPEC NAMUR1:28:311:28:455:40 10.6223dam571ERPENT
477.2567VANTO GAETANO38BELJACO1:28:221:28:505:40 10.61196sen573PÉRONNES-LEZ-BINCHE
478.3847HENRY SEBASTIEN42BEL1:28:161:28:525:40 10.60131ve1574GESVES
479.3226FRIPIAT BERNARD44BEL1:27:551:28:555:40 10.59132ve1577JAMBES
480.3537CUVELIER GILLES24BELTORTUES MESLINO1:28:311:28:565:40 10.59197sen570
481.3126RANDALL CHRISTOPHER57GBRRUN4VILLERS1:28:071:28:575:40 10.5982ve2574SART-DAMES-AVELINES
482.3938DELPIERRE MATTHIEU36BEL1:28:011:28:595:41 10.59198sen575VERDUN
483.2602FMAROT CAROLINE42BELSMAC1:28:501:29:035:41 10.5813ai1566FLAWINNE
484.3593MATHY JEAN-LUC63BELRCNAMUR1:29:021:29:045:41 10.5821ve3564NAMUR
485.2521EDEBOUW PHILIPPE59BELGERPINNES & CO1:29:001:29:065:41 10.5783ve2564AISEAU
486.3073HUBERT BRUNO37BEL1:28:391:29:085:41 10.57199sen567NAMUR
487.3187LALLEMANT JOACHIM30BEL1:28:041:29:105:41 10.57200sen573VIELSALM
488.3818PAGÈS JEAN-YVES40BELBVCL1:28:361:29:125:41 10.56133ve1567LOYERS
489.100BERTRAND NICOLAS32BELRRTCHATELET1:28:441:29:125:41 10.56201sen566BOIS-DE-VILLERS
490.3050DUMONT JEAN LOUIS60BELCSJR LESVE1:28:321:29:185:42 10.5522ve3567PROFONDEVILLE
491.304GRZESINSKI BERNARD55BELJOG'IN ATTITUDE1:28:341:29:195:42 10.5584ve2567FLEMALLE
492.3929COOSEMANS HERVÉ38BEL1:28:131:29:205:42 10.55202sen570MEEFFE
493.3972HAINAUT JEAN-BAPTISTE31BEL1:27:591:29:215:42 10.54203sen572NAMUR
494.2508FBEIRNAERT NATHALIE32BEL1:29:141:29:225:42 10.5424dam559
495.3966BOUILLARD JULIEN32BELJOASSIN TRAIL T1:28:271:29:265:42 10.53204sen566NAMUR
496.2550FNEMERY GERALDINE37BELMYRUN1:29:101:29:265:42 10.5325dam559MAIZERET
497.3999FTHIRY CATHERINE41BELOXY 2000 - RC N1:29:131:29:275:42 10.5314ai1558THIEUSIES
498.140FKOHL ANGELIQUE47BELHUY1:29:171:29:275:42 10.5315ai1557HUY
499.824GOBERT PASCAL44BEL1:28:521:29:305:43 10.53134ve1561LEUZE
500.3315MICHEL OLIVIER35BELGAG1:28:451:29:335:43 10.52205sen562GRAND MANIL
DNF: abandon; DSQ: disqualifié; Vitesse en km/h
Page: [1] 2 3